Time;durP1;ratioP1;P1;durP2;ratioP2;P2;SDS_P1;SDS_P2;PMS_P1;PMS_P2;Temp;Humidity;BMP_temperature;BMP_pressure;BME280_temperature;BME280_humidity;BME280_pressure;Samples;Min_cycle;Max_cycle;Signal;HPM_P1;HPM_P2
2022/07/17 00:00:43;;;;;;;3.67;1.73;;;;;;;;;;5063585;28;20205;-59
2022/07/17 00:03:10;;;;;;;3.60;1.70;;;;;;;;;;5054231;28;20207;-59
2022/07/17 00:05:40;;;;;;;9.13;1.80;;;;;;;;;;5063975;28;20218;-59
2022/07/17 00:08:07;;;;;;;3.43;1.60;;;;;;;;;;5044917;28;20555;-59
2022/07/17 00:10:34;;;;;;;4.53;1.60;;;;;;;;;;5062350;28;20205;-59
2022/07/17 00:13:02;;;;;;;4.93;1.93;;;;;;;;;;5059866;28;20198;-59
2022/07/17 00:15:28;;;;;;;3.93;2.10;;;12.90;99.90;;;;;;5063368;28;20245;-59
2022/07/17 00:17:56;;;;;;;5.83;2.23;;;12.70;99.90;;;;;;5060626;28;20199;-59
2022/07/17 00:20:25;;;;;;;4.40;1.43;;;12.70;99.90;;;;;;5056397;28;20211;-60
2022/07/17 00:22:54;;;;;;;3.23;1.50;;;12.60;99.90;;;;;;5061202;28;20294;-59
2022/07/17 00:25:21;;;;;;;7.13;1.80;;;12.60;99.90;;;;;;5046721;28;20218;-59
2022/07/17 00:27:48;;;;;;;2.73;1.57;;;12.60;99.90;;;;;;5061898;28;20301;-59
2022/07/17 00:30:16;;;;;;;9.23;1.73;;;12.60;99.90;;;;;;5061805;28;20448;-59
2022/07/17 00:32:43;;;;;;;5.83;1.40;;;12.50;99.90;;;;;;5063065;28;20203;-59
2022/07/17 00:35:11;;;;;;;5.77;1.70;;;;;;;;;;5053350;28;20222;-60
2022/07/17 00:37:40;;;;;;;3.30;1.53;;;12.40;99.90;;;;;;5063745;28;20230;-59
2022/07/17 00:40:10;;;;;;;6.67;1.73;;;12.40;99.90;;;;;;5042968;28;20207;-59
2022/07/17 00:42:39;;;;;;;9.50;2.20;;;12.40;99.90;;;;;;5063396;28;20202;-59
2022/07/17 00:45:07;;;;;;;5.13;1.77;;;12.30;99.90;;;;;;5059433;28;20944;-59
2022/07/17 00:47:34;;;;;;;7.00;1.70;;;12.20;99.90;;;;;;5063433;28;20615;-59
2022/07/17 00:50:01;;;;;;;7.43;1.77;;;12.30;99.90;;;;;;5052309;28;20202;-59
2022/07/17 00:52:28;;;;;;;1.70;1.57;;;12.30;99.90;;;;;;5063598;28;20221;-59
2022/07/17 00:54:58;;;;;;;5.87;2.30;;;12.30;99.90;;;;;;5047482;28;20222;-58
2022/07/17 00:57:27;;;;;;;4.43;1.87;;;12.20;99.90;;;;;;5063116;28;20225;-59
2022/07/17 00:59:54;;;;;;;5.33;1.43;;;12.20;99.90;;;;;;5060015;28;20310;-59
2022/07/17 01:02:21;;;;;;;5.93;1.93;;;12.20;99.90;;;;;;5062641;28;20206;-60
2022/07/17 01:04:48;;;;;;;1.90;1.63;;;12.10;99.90;;;;;;5059427;28;20225;-59
2022/07/17 01:07:15;;;;;;;3.60;1.90;;;12.00;99.90;;;;;;5057198;28;20215;-59
2022/07/17 01:09:42;;;;;;;4.03;1.50;;;12.00;99.90;;;;;;5059800;28;20305;-59
2022/07/17 01:12:10;;;;;;;5.10;1.50;;;12.00;99.90;;;;;;5048690;28;20319;-59
2022/07/17 01:14:39;;;;;;;3.43;1.80;;;12.10;99.90;;;;;;5062461;28;20659;-60
2022/07/17 01:17:06;;;;;;;2.87;1.17;;;12.10;99.90;;;;;;5059742;28;20790;-59
2022/07/17 01:19:32;;;;;;;4.83;1.57;;;12.00;99.90;;;;;;5063238;28;20221;-59
2022/07/17 01:22:01;;;;;;;4.77;1.60;;;12.00;99.90;;;;;;5052132;28;20214;-59
2022/07/17 01:24:28;;;;;;;6.33;2.57;;;12.00;99.90;;;;;;5065973;28;20667;-59
2022/07/17 01:26:55;;;;;;;4.00;2.33;;;11.90;99.90;;;;;;5048391;28;20214;-59
2022/07/17 01:29:22;;;;;;;3.73;2.40;;;11.80;99.90;;;;;;5066282;28;20630;-59
2022/07/17 01:31:49;;;;;;;6.47;1.97;;;11.90;99.90;;;;;;5065449;28;20655;-59
2022/07/17 01:34:16;;;;;;;5.90;2.40;;;11.90;99.90;;;;;;5064696;28;20197;-59
2022/07/17 01:36:43;;;;;;;4.67;2.50;;;12.00;99.90;;;;;;5066328;28;20305;-59
2022/07/17 01:39:11;;;;;;;4.20;2.07;;;12.00;99.90;;;;;;5057884;28;20895;-59
2022/07/17 01:41:39;;;;;;;5.43;2.40;;;12.00;99.90;;;;;;5066950;28;20558;-60
2022/07/17 01:44:08;;;;;;;4.60;1.70;;;12.00;99.90;;;;;;5048466;28;20182;-59
2022/07/17 01:46:35;;;;;;;4.33;1.83;;;12.10;99.90;;;;;;5066554;28;20636;-59
2022/07/17 01:49:02;;;;;;;6.17;2.40;;;12.10;99.90;;;;;;5062779;28;20190;-59
2022/07/17 01:51:30;;;;;;;4.20;2.00;;;12.10;99.90;;;;;;5066634;28;20194;-59
2022/07/17 01:53:56;;;;;;;5.80;1.93;;;12.10;99.90;;;;;;5055627;28;20203;-59
2022/07/17 01:56:24;;;;;;;4.50;2.10;;;12.10;99.90;;;;;;5066494;28;20222;-59
2022/07/17 01:58:51;;;;;;;5.13;2.00;;;12.20;99.90;;;;;;5044207;28;20626;-60
2022/07/17 02:01:18;;;;;;;4.60;2.10;;;12.20;99.90;;;;;;5063817;28;21204;-60
2022/07/17 02:03:45;;;;;;;4.95;2.10;;;12.60;99.90;;;;;;5064454;28;20422;-60
2022/07/17 02:06:12;;;;;;;5.90;2.40;;;12.70;99.90;;;;;;5062740;28;20624;-59
2022/07/17 02:08:39;;;;;;;5.75;2.40;;;12.90;99.90;;;;;;5057860;28;20442;-59
2022/07/17 02:11:07;;;;;;;8.98;2.40;;;13.10;99.90;;;;;;5056143;28;20413;-59
2022/07/17 02:13:35;;;;;;;9.82;2.78;;;13.00;99.90;;;;;;5042867;28;20433;-59
2022/07/17 02:16:01;;;;;;;5.72;2.30;;;13.10;99.90;;;;;;5054593;28;20958;-60
2022/07/17 02:18:28;;;;;;;5.35;2.20;;;13.10;99.90;;;;;;5065926;28;20429;-59
2022/07/17 02:20:55;;;;;;;8.93;2.00;;;13.20;99.90;;;;;;5061850;28;20206;-59
2022/07/17 02:23:22;;;;;;;6.97;2.50;;;13.00;99.90;;;;;;5057853;28;20438;-60
2022/07/17 02:25:49;;;;;;;8.13;2.20;;;13.10;99.90;;;;;;5063386;28;20421;-59
2022/07/17 02:28:16;;;;;;;4.17;2.00;;;13.20;99.90;;;;;;5064174;28;20264;-59
2022/07/17 02:30:44;;;;;;;4.13;1.80;;;13.00;99.90;;;;;;5049044;28;20214;-59
2022/07/17 02:33:11;;;;;;;4.07;1.90;;;12.90;99.90;;;;;;5062869;28;20936;-59
2022/07/17 02:35:38;;;;;;;4.88;2.15;;;12.80;99.90;;;;;;5065619;28;20426;-59
2022/07/17 02:38:08;;;;;;;5.47;1.90;;;12.90;99.90;;;;;;5061937;28;20414;-59
2022/07/17 02:40:35;;;;;;;6.70;2.03;;;13.10;99.90;;;;;;5059179;28;20210;-60
2022/07/17 02:43:02;;;;;;;7.00;2.00;;;12.90;99.90;;;;;;5061382;28;20186;-59
2022/07/17 02:45:29;;;;;;;7.90;1.90;;;12.80;99.90;;;;;;5049276;28;20230;-60
2022/07/17 02:47:57;;;;;;;4.27;2.00;;;12.80;99.90;;;;;;5062063;28;20227;-59
2022/07/17 02:50:24;;;;;;;7.40;2.10;;;12.80;99.90;;;;;;5065347;28;20199;-60
2022/07/17 02:52:51;;;;;;;7.37;2.17;;;12.80;99.90;;;;;;5063035;28;20655;-59
2022/07/17 02:55:19;;;;;;;4.33;1.63;;;12.70;99.90;;;;;;5057144;28;20214;-59
2022/07/17 02:57:47;;;;;;;3.90;1.90;;;12.70;99.90;;;;;;5064257;28;20266;-59
2022/07/17 03:00:16;;;;;;;5.53;1.90;;;12.70;99.90;;;;;;5047350;28;20211;-59
2022/07/17 03:02:43;;;;;;;9.27;1.90;;;12.60;99.90;;;;;;5064437;28;20198;-60
2022/07/17 03:05:13;;;;;;;3.93;1.90;;;12.60;99.90;;;;;;5060974;28;20222;-60
2022/07/17 03:07:41;;;;;;;6.03;2.20;;;12.70;99.90;;;;;;5064898;28;20625;-59
2022/07/17 03:10:09;;;;;;;5.97;2.00;;;12.70;99.90;;;;;;5054861;28;22163;-59
2022/07/17 03:12:35;;;;;;;5.20;1.37;;;12.70;99.90;;;;;;5065378;28;20199;-60
2022/07/17 03:15:03;;;;;;;6.47;2.23;;;12.70;99.90;;;;;;5060484;28;20214;-59
2022/07/17 03:17:30;;;;;;;3.37;1.40;;;12.70;99.90;;;;;;5049080;28;20260;-60
2022/07/17 03:19:57;;;;;;;8.53;2.30;;;12.80;99.90;;;;;;5061243;28;20195;-59
2022/07/17 03:22:25;;;;;;;9.07;2.20;;;12.80;99.90;;;;;;5064952;28;20203;-60
2022/07/17 03:24:51;;;;;;;4.50;1.70;;;12.80;99.90;;;;;;5058903;28;20222;-59
2022/07/17 03:27:18;;;;;;;5.27;1.60;;;12.80;99.90;;;;;;5060915;28;20206;-60
2022/07/17 03:29:46;;;;;;;8.27;1.83;;;12.80;99.90;;;;;;5063497;28;20203;-59
2022/07/17 03:32:13;;;;;;;5.77;2.00;;;12.80;99.90;;;;;;5046596;28;20210;-60
2022/07/17 03:34:40;;;;;;;4.73;1.33;;;12.80;99.90;;;;;;5063698;28;20248;-59
2022/07/17 03:37:07;;;;;;;8.20;1.97;;;12.80;99.90;;;;;;5060998;28;20183;-60
2022/07/17 03:39:35;;;;;;;5.13;1.43;;;12.90;99.90;;;;;;5064491;28;20210;-59
2022/07/17 03:42:02;;;;;;;5.17;1.97;;;12.90;99.90;;;;;;5053827;28;20213;-60
2022/07/17 03:44:29;;;;;;;4.40;1.47;;;12.90;99.90;;;;;;5064146;28;20195;-60
2022/07/17 03:46:56;;;;;;;5.87;2.20;;;13.00;99.90;;;;;;5047531;28;20683;-59
2022/07/17 03:49:24;;;;;;;4.13;1.73;;;13.00;99.90;;;;;;5062802;28;20206;-59
2022/07/17 03:51:51;;;;;;;4.60;1.50;;;13.00;99.90;;;;;;5062112;28;20622;-60
2022/07/17 03:54:18;;;;;;;5.03;1.70;;;13.00;99.90;;;;;;5062872;28;20187;-59
2022/07/17 03:56:47;;;;;;;6.67;1.77;;;13.10;99.90;;;;;;5062430;28;20222;-60
2022/07/17 03:59:14;;;;;;;8.23;1.80;;;13.10;99.90;;;;;;5057817;28;20774;-59
2022/07/17 04:01:41;;;;;;;4.80;1.40;;;13.10;99.90;;;;;;5064002;28;20601;-57
2022/07/17 04:04:08;;;;;;;3.43;1.80;;;13.10;99.90;;;;;;5044448;28;20213;-59
2022/07/17 04:06:35;;;;;;;5.10;1.80;;;13.20;99.90;;;;;;5063656;28;20230;-59
2022/07/17 04:09:02;;;;;;;5.63;2.00;;;13.10;99.90;;;;;;5057666;28;20191;-60
2022/07/17 04:11:29;;;;;;;4.87;1.50;;;13.20;99.90;;;;;;5064207;28;20596;-59
2022/07/17 04:13:57;;;;;;;3.23;1.80;;;13.20;99.90;;;;;;5053575;28;20727;-59
2022/07/17 04:16:24;;;;;;;5.90;1.90;;;13.20;99.90;;;;;;5063692;28;20219;-59
2022/07/17 04:18:51;;;;;;;6.93;1.93;;;13.30;99.90;;;;;;5049668;28;20206;-58
2022/07/17 04:21:18;;;;;;;7.07;1.93;;;13.30;99.90;;;;;;5062293;28;20186;-59
2022/07/17 04:23:45;;;;;;;4.97;1.80;;;13.30;99.90;;;;;;5062345;28;20195;-59
2022/07/17 04:26:12;;;;;;;3.97;2.17;;;13.40;99.90;;;;;;5061239;28;20219;-59
2022/07/17 04:28:39;;;;;;;4.70;1.80;;;13.40;99.90;;;;;;5056847;28;20215;-60
2022/07/17 04:31:07;;;;;;;3.60;1.50;;;13.40;99.90;;;;;;5059918;28;20201;-59
2022/07/17 04:33:34;;;;;;;7.27;1.87;;;13.40;99.90;;;;;;5063459;28;20724;-59
2022/07/17 04:36:01;;;;;;;6.87;2.00;;;13.40;99.90;;;;;;5043697;28;20218;-59
2022/07/17 04:38:28;;;;;;;4.43;1.60;;;13.40;99.90;;;;;;5063393;28;20541;-59
2022/07/17 04:40:55;;;;;;;7.07;1.63;;;13.40;99.90;;;;;;5060516;28;20245;-59
2022/07/17 04:43:22;;;;;;;3.40;1.90;;;13.50;99.90;;;;;;5062238;28;20191;-59
2022/07/17 04:45:49;;;;;;;7.40;1.80;;;13.50;99.90;;;;;;5053541;28;20226;-59
2022/07/17 04:48:17;;;;;;;3.43;1.53;;;13.60;99.90;;;;;;5060400;28;20230;-59
2022/07/17 04:50:44;;;;;;;5.63;2.00;;;13.60;99.90;;;;;;5046063;28;20714;-59
2022/07/17 04:53:11;;;;;;;3.47;1.50;;;13.60;99.90;;;;;;5060249;28;20194;-59
2022/07/17 04:55:38;;;;;;;4.73;1.50;;;13.70;99.90;;;;;;5063500;28;20305;-59
2022/07/17 04:58:06;;;;;;;9.23;1.73;;;13.70;99.90;;;;;;5058874;28;20193;-59
2022/07/17 05:00:32;;;;;;;2.00;1.50;;;13.80;99.90;;;;;;5056178;28;20276;-59
2022/07/17 05:03:00;;;;;;;1.83;1.43;;;13.90;99.90;;;;;;5059561;28;20930;-59
2022/07/17 05:05:28;;;;;;;2.20;1.30;;;13.80;99.90;;;;;;5047324;28;20229;-59
2022/07/17 05:07:55;;;;;;;5.20;1.60;;;13.90;99.90;;;;;;5059772;28;20206;-59
2022/07/17 05:10:21;;;;;;;4.30;1.23;;;13.90;99.90;;;;;;5062620;28;20213;-59
2022/07/17 05:12:48;;;;;;;5.33;1.57;;;14.00;99.90;;;;;;5061361;28;20209;-59
2022/07/17 05:15:15;;;;;;;3.60;1.20;;;14.00;99.90;;;;;;5053524;28;20916;-59
2022/07/17 05:17:41;;;;;;;2.80;1.93;;;14.00;99.90;;;;;;5062768;28;20210;-59
2022/07/17 05:20:09;;;;;;;6.00;1.60;;;14.00;99.90;;;;;;5059880;28;20191;-59
2022/07/17 05:22:37;;;;;;;3.57;1.60;;;14.10;99.90;;;;;;5047765;28;20317;-59
2022/07/17 05:25:05;;;;;;;4.60;1.40;;;14.10;99.90;;;;;;5057534;28;20811;-60
2022/07/17 05:27:32;;;;;;;3.27;1.47;;;14.10;99.90;;;;;;5062916;28;20302;-59
2022/07/17 05:29:59;;;;;;;4.83;1.30;;;14.10;99.90;;;;;;5058850;28;20882;-59
2022/07/17 05:32:26;;;;;;;4.00;1.60;;;14.20;99.90;;;;;;5056337;28;20218;-59
2022/07/17 05:34:53;;;;;;;6.93;1.73;;;14.20;99.90;;;;;;5059722;28;20214;-60
2022/07/17 05:37:20;;;;;;;4.47;1.73;;;14.20;99.90;;;;;;5046462;28;20596;-59
2022/07/17 05:39:48;;;;;;;5.47;1.60;;;14.30;99.90;;;;;;5060894;28;20206;-59
2022/07/17 05:42:15;;;;;;;3.63;1.33;;;14.30;99.90;;;;;;5061075;28;20930;-60
2022/07/17 05:44:42;;;;;;;3.97;1.37;;;14.30;99.90;;;;;;5060770;28;20219;-59
2022/07/17 05:47:09;;;;;;;4.33;1.50;;;14.30;99.90;;;;;;5052605;28;20280;-59
2022/07/17 05:49:36;;;;;;;3.33;1.20;;;14.30;99.90;;;;;;5062934;28;20651;-59
2022/07/17 05:52:04;;;;;;;4.67;1.73;;;14.40;99.90;;;;;;5036711;28;20191;-59
2022/07/17 05:54:32;;;;;;;4.30;1.80;;;14.40;99.90;;;;;;5057960;28;20202;-59
2022/07/17 05:57:01;;;;;;;5.43;1.80;;;14.40;99.90;;;;;;5052474;28;20199;-59
2022/07/17 05:59:28;;;;;;;7.20;1.80;;;14.50;99.90;;;;;;5062973;28;20659;-60
2022/07/17 06:01:54;;;;;;;4.07;1.70;;;14.50;99.90;;;;;;5048144;28;20201;-59
2022/07/17 06:04:21;;;;;;;6.00;1.53;;;14.60;99.90;;;;;;5060241;28;20203;-59
2022/07/17 06:06:48;;;;;;;5.53;1.67;;;14.60;99.90;;;;;;5053133;28;20227;-59
2022/07/17 06:09:16;;;;;;;7.57;1.70;;;14.60;99.90;;;;;;5054179;28;20786;-60
2022/07/17 06:11:43;;;;;;;3.63;1.40;;;14.60;99.90;;;;;;5065859;28;20213;-60
2022/07/17 06:14:11;;;;;;;3.60;2.00;;;14.70;99.90;;;;;;5063003;28;20199;-59
2022/07/17 06:16:38;;;;;;;5.40;1.33;;;14.90;99.90;;;;;;5065681;28;20218;-59
2022/07/17 06:19:05;;;;;;;5.30;1.40;;;15.00;99.90;;;;;;5055661;28;20209;-59
2022/07/17 06:21:31;;;;;;;5.13;1.97;;;15.00;99.90;;;;;;5066269;28;20241;-59
2022/07/17 06:23:58;;;;;;;6.53;1.53;;;15.10;99.90;;;;;;5046360;28;20981;-59
2022/07/17 06:26:25;;;;;;;1.67;1.17;;;15.20;99.90;;;;;;5065934;28;20211;-59
2022/07/17 06:28:52;;;;;;;6.37;1.40;;;15.30;99.90;;;;;;5063432;28;20225;-59
2022/07/17 06:31:21;;;;;;;5.97;1.40;;;15.30;99.90;;;;;;5064644;28;20318;-59
2022/07/17 06:33:48;;;;;;;3.67;1.57;;;15.40;99.90;;;;;;5062144;28;20203;-59
2022/07/17 06:36:15;;;;;;;7.43;1.23;;;15.40;99.90;;;;;;5059299;28;20221;-59
2022/07/17 06:38:42;;;;;;;3.10;1.30;;;15.50;99.90;;;;;;5061752;28;20199;-59
2022/07/17 06:41:08;;;;;;;4.30;1.47;;;15.50;99.90;;;;;;5050714;28;20195;-59
2022/07/17 06:43:35;;;;;;;4.43;1.30;;;15.60;99.90;;;;;;5064126;28;20581;-59
2022/07/17 06:46:03;;;;;;;5.30;1.30;;;15.60;99.90;;;;;;5061555;28;20215;-59
2022/07/17 06:48:31;;;;;;;6.13;1.40;;;15.60;99.90;;;;;;5065076;28;20699;-58
2022/07/17 06:50:58;;;;;;;3.40;1.40;;;15.60;99.90;;;;;;5054612;28;20199;-59
2022/07/17 06:53:25;;;;;;;5.53;1.47;;;15.60;99.90;;;;;;5065326;28;20643;-59
2022/07/17 06:55:52;;;;;;;2.53;1.23;;;15.50;99.90;;;;;;5047740;28;20313;-59
2022/07/17 06:58:19;;;;;;;3.27;1.77;;;15.50;99.90;;;;;;5064429;28;20195;-59
2022/07/17 07:00:47;;;;;;;2.77;1.20;;;15.60;99.90;;;;;;5064063;28;20203;-59
2022/07/17 07:03:13;;;;;;;6.47;1.50;;;15.60;99.90;;;;;;5062914;28;20569;-58
2022/07/17 07:05:42;;;;;;;5.60;1.47;;;15.70;99.90;;;;;;5065300;28;20234;-59
2022/07/17 07:08:08;;;;;;;4.47;1.50;;;15.70;99.90;;;;;;5055122;28;20203;-59
2022/07/17 07:10:35;;;;;;;2.93;1.30;;;15.80;99.90;;;;;;5048790;28;20206;-59
2022/07/17 07:13:02;;;;;;;3.47;1.63;;;15.80;99.90;;;;;;5058109;28;20484;-59
2022/07/17 07:15:29;;;;;;;3.17;1.37;;;15.90;99.90;;;;;;5064734;28;20219;-59
2022/07/17 07:17:56;;;;;;;7.53;1.60;;;16.00;99.90;;;;;;5062005;28;20198;-58
2022/07/17 07:20:23;;;;;;;6.33;1.30;;;16.00;99.90;;;;;;5064082;28;20207;-59
2022/07/17 07:22:51;;;;;;;3.77;1.37;;;16.10;99.90;;;;;;5056154;28;20215;-59
2022/07/17 07:25:18;;;;;;;2.57;1.43;;;16.20;99.90;;;;;;5048224;28;20818;-58
2022/07/17 07:27:45;;;;;;;6.43;1.63;;;16.30;99.90;;;;;;5063439;28;20194;-59
2022/07/17 07:30:12;;;;;;;2.60;1.27;;;16.30;99.90;;;;;;5062495;28;20199;-59
2022/07/17 07:32:40;;;;;;;4.70;1.47;;;16.40;99.90;;;;;;5064925;28;20728;-59
2022/07/17 07:35:08;;;;;;;3.63;1.40;;;16.50;99.90;;;;;;5060952;28;20976;-59
2022/07/17 07:37:36;;;;;;;1.60;1.10;;;16.50;99.90;;;;;;5057864;28;20210;-59
2022/07/17 07:40:05;;;;;;;4.90;1.73;;;16.60;99.90;;;;;;5060534;28;20303;-59
2022/07/17 07:42:32;;;;;;;7.70;1.87;;;16.70;99.90;;;;;;5048550;28;20217;-59
2022/07/17 07:44:59;;;;;;;3.67;1.00;;;16.80;99.90;;;;;;5059696;28;20629;-59
2022/07/17 07:47:25;;;;;;;6.37;1.60;;;16.90;99.90;;;;;;5064106;28;20207;-59
2022/07/17 07:49:52;;;;;;;3.70;1.53;;;17.00;99.90;;;;;;5061869;28;20226;-60
2022/07/17 07:52:19;;;;;;;5.57;2.10;;;17.10;99.90;;;;;;5056600;28;20210;-59
2022/07/17 07:54:46;;;;;;;3.27;1.17;;;17.10;99.90;;;;;;5062905;28;20226;-59
2022/07/17 07:57:14;;;;;;;2.93;1.43;;;17.20;99.90;;;;;;5045979;28;20430;-59
2022/07/17 07:59:41;;;;;;;4.23;1.20;;;17.20;99.90;;;;;;5063497;28;20207;-58
2022/07/17 08:02:08;;;;;;;2.90;1.40;;;17.20;99.90;;;;;;5060845;28;20297;-59
2022/07/17 08:04:35;;;;;;;6.47;1.33;;;17.20;99.90;;;;;;5063689;28;20194;-59
2022/07/17 08:07:02;;;;;;;4.77;1.50;;;17.10;99.90;;;;;;5060099;28;20191;-60
2022/07/17 08:09:29;;;;;;;4.20;1.20;;;17.10;99.90;;;;;;5056979;28;20294;-60
2022/07/17 08:11:55;;;;;;;3.80;1.47;;;17.20;99.90;;;;;;5046566;28;20199;-59
2022/07/17 08:14:23;;;;;;;5.77;1.37;;;17.40;99.90;;;;;;5060797;28;20232;-59
2022/07/17 08:16:50;;;;;;;3.93;1.20;;;17.60;99.90;;;;;;5061589;28;20219;-59
2022/07/17 08:19:17;;;;;;;3.97;1.10;;;17.60;99.90;;;;;;5062397;28;20325;-59
2022/07/17 08:21:44;;;;;;;6.53;1.30;;;17.60;99.90;;;;;;5063238;28;20562;-59
2022/07/17 08:24:11;;;;;;;3.77;1.40;;;17.60;99.90;;;;;;5053696;28;20199;-59
2022/07/17 08:26:38;;;;;;;2.37;1.00;;;17.60;99.90;;;;;;5063777;28;20222;-59
2022/07/17 08:29:05;;;;;;;6.93;1.50;;;17.70;99.90;;;;;;5043545;28;20825;-59
2022/07/17 08:31:33;;;;;;;4.70;1.20;;;17.90;99.90;;;;;;5063237;28;20202;-59
2022/07/17 08:34:00;;;;;;;2.30;1.10;;;17.90;99.90;;;;;;5059198;28;20778;-59
2022/07/17 08:36:27;;;;;;;1.63;1.07;;;18.10;99.90;;;;;;5063719;28;20218;-59
2022/07/17 08:38:54;;;;;;;4.50;1.33;;;18.30;99.90;;;;;;5053698;28;20194;-59
2022/07/17 08:41:22;;;;;;;2.83;1.00;;;18.30;99.90;;;;;;5062890;28;20230;-52
2022/07/17 08:43:50;;;;;;;4.00;1.10;;;18.20;99.90;;;;;;5052677;28;20270;-51
2022/07/17 08:46:18;;;;;;;3.20;1.07;;;18.10;99.90;;;;;;5056040;28;20224;-51
2022/07/17 08:48:50;;;;;;;2.23;1.13;;;18.10;99.90;;;;;;5062170;28;20210;-50
2022/07/17 08:51:18;;;;;;;4.57;1.60;;;18.10;99.90;;;;;;5062079;28;20796;-48
2022/07/17 08:53:45;;;;;;;3.47;0.90;;;18.40;99.90;;;;;;5061246;28;20199;-52
2022/07/17 08:56:12;;;;;;;3.87;1.13;;;18.50;99.90;;;;;;5055292;28;20360;-49
2022/07/17 08:58:39;;;;;;;4.70;1.77;;;18.30;99.90;;;;;;5063364;28;20191;-50
2022/07/17 09:01:07;;;;;;;1.70;0.80;;;18.20;99.90;;;;;;5043037;28;20324;-54
2022/07/17 09:03:34;;;;;;;3.73;1.20;;;18.10;99.90;;;;;;5095325;28;20218;-54
2022/07/17 09:06:02;;;;;;;6.30;1.53;;;18.30;99.90;;;;;;5059534;28;20810;-51
2022/07/17 09:08:33;;;;;;;2.33;1.30;;;18.40;99.90;;;;;;5063136;28;20218;-53
2022/07/17 09:11:07;;;;;;;5.93;1.17;;;18.50;99.90;;;;;;5052144;28;20195;-54
2022/07/17 09:13:34;;;;;;;4.93;1.20;;;18.60;99.90;;;;;;5062785;28;20208;-55
2022/07/17 09:16:10;;;;;;;6.07;1.13;;;18.80;99.90;;;;;;5042978;28;20239;-51
2022/07/17 09:18:44;;;;;;;4.53;1.27;;;19.00;99.90;;;;;;5062829;28;20210;-53
2022/07/17 09:21:19;;;;;;;3.70;1.47;;;19.00;99.90;;;;;;5060698;28;20206;-49
2022/07/17 09:23:46;;;;;;;3.77;1.40;;;18.80;99.90;;;;;;5061430;28;20203;-54
2022/07/17 09:26:13;;;;;;;3.73;1.50;;;18.70;99.90;;;;;;5053824;28;20291;-53
2022/07/17 09:28:46;;;;;;;2.67;1.17;;;18.80;99.90;;;;;;5062717;28;20221;-53
2022/07/17 09:31:14;;;;;;;2.13;1.70;;;18.80;99.90;;;;;;5060672;28;20563;-51
2022/07/17 09:33:41;;;;;;;3.40;1.03;;;18.80;99.90;;;;;;5046231;28;20317;-52
2022/07/17 09:36:10;;;;;;;5.57;1.83;;;18.70;99.90;;;;;;5059600;28;20214;-49
2022/07/17 09:38:40;;;;;;;3.60;1.40;;;18.80;99.90;;;;;;5063036;28;20203;-55
2022/07/17 09:41:13;;;;;;;4.03;1.40;;;18.80;99.90;;;;;;5052306;28;20286;-51
2022/07/17 09:43:44;;;;;;;3.23;0.90;;;18.90;99.90;;;;;;5063184;28;20209;-52
2022/07/17 09:46:14;;;;;;;4.27;1.33;;;19.10;99.90;;;;;;5057326;28;20433;-53
2022/07/17 09:48:47;;;;;;;4.73;1.43;;;19.10;99.90;;;;;;5048455;28;20218;-53
2022/07/17 09:51:17;;;;;;;2.63;1.40;;;19.10;99.90;;;;;;5058249;28;20271;-48
2022/07/17 09:53:48;;;;;;;4.17;1.23;;;19.20;99.90;;;;;;5097785;28;20622;-53
2022/07/17 09:56:17;;;;;;;2.47;1.00;;;19.30;99.90;;;;;;5057974;28;20214;-53
2022/07/17 09:58:48;;;;;;;2.23;1.23;;;19.30;99.90;;;;;;5066066;28;20774;-53
2022/07/17 10:01:16;;;;;;;4.43;1.20;;;19.30;99.70;;;;;;5064663;28;20187;-51
2022/07/17 10:03:43;;;;;;;4.80;0.80;;;19.40;99.10;;;;;;5049559;28;20311;-52
2022/07/17 10:06:12;;;;;;;2.27;1.00;;;19.50;98.90;;;;;;5063315;28;20206;-47
2022/07/17 10:08:39;;;;;;;3.00;1.20;;;19.50;99.10;;;;;;5066563;28;20194;-51
2022/07/17 10:11:09;;;;;;;2.90;1.00;;;19.50;99.00;;;;;;5055860;28;20743;-53
2022/07/17 10:13:37;;;;;;;2.47;1.10;;;19.50;98.60;;;;;;5066054;28;20286;-51
2022/07/17 10:16:04;;;;;;;2.37;0.90;;;19.60;98.80;;;;;;5062069;28;20210;-50
2022/07/17 10:18:40;;;;;;;2.67;1.00;;;19.70;99.40;;;;;;5066408;28;20245;-55
2022/07/17 10:21:14;;;;;;;1.13;0.67;;;19.70;98.90;;;;;;5048717;28;20190;-52
2022/07/17 10:23:42;;;;;;;4.63;0.73;;;19.70;98.70;;;;;;5065359;28;20623;-55
2022/07/17 10:26:11;;;;;;;3.33;0.80;;;19.60;98.30;;;;;;5063196;28;20222;-50
2022/07/17 10:28:41;;;;;;;2.87;1.30;;;19.70;98.60;;;;;;5059418;28;20214;-53
2022/07/17 10:31:08;;;;;;;4.40;0.90;;;19.80;98.10;;;;;;5061416;28;20187;-49
2022/07/17 10:33:36;;;;;;;3.97;1.30;;;19.80;98.20;;;;;;5065510;28;20252;-53
2022/07/17 10:36:03;;;;;;;2.73;0.93;;;19.80;98.10;;;;;;5041295;28;20241;-53
2022/07/17 10:38:30;;;;;;;1.37;0.70;;;19.80;97.90;;;;;;5066175;28;20667;-52
2022/07/17 10:41:05;;;;;;;2.50;0.90;;;19.70;98.00;;;;;;5062525;28;20344;-55
2022/07/17 10:43:43;;;;;;;5.47;0.83;;;19.70;98.30;;;;;;5058653;28;20306;-54
2022/07/17 10:46:10;;;;;;;1.57;0.97;;;19.80;97.50;;;;;;5055935;28;20218;-51
2022/07/17 10:48:40;;;;;;;5.60;1.40;;;19.80;97.60;;;;;;5065679;28;20209;-53
2022/07/17 10:51:07;;;;;;;1.90;0.90;;;19.90;97.30;;;;;;5048516;28;20195;-50
2022/07/17 10:53:36;;;;;;;2.37;0.63;;;19.90;97.10;;;;;;5061835;28;20574;-51
2022/07/17 10:56:04;;;;;;;3.90;1.27;;;19.90;97.20;;;;;;5053861;28;20383;-50
2022/07/17 10:58:34;;;;;;;3.63;0.90;;;20.10;97.60;;;;;;5052437;28;20203;-53
2022/07/17 11:01:06;;;;;;;3.17;1.10;;;20.30;97.10;;;;;;5055111;28;20277;-50
2022/07/17 11:03:38;;;;;;;6.90;1.10;;;20.20;96.90;;;;;;5065380;28;20573;-50
2022/07/17 11:06:16;;;;;;;3.00;0.70;;;20.20;96.50;;;;;;5045835;28;20214;-50
2022/07/17 11:08:46;;;;;;;2.20;0.87;;;20.00;96.00;;;;;;5064702;28;20207;-52
2022/07/17 11:11:14;;;;;;;3.37;1.47;;;19.90;96.80;;;;;;5095600;28;21020;-51
2022/07/17 11:13:40;;;;;;;3.70;0.80;;;19.90;96.90;;;;;;5064961;28;20660;-48
2022/07/17 11:16:09;;;;;;;3.23;1.00;;;20.00;96.80;;;;;;5054404;28;20226;-49
2022/07/17 11:18:36;;;;;;;4.30;1.20;;;20.00;96.70;;;;;;5065358;28;20206;-48
2022/07/17 11:21:05;;;;;;;2.87;1.07;;;20.10;96.80;;;;;;5045409;28;20191;-50
2022/07/17 11:23:33;;;;;;;1.80;0.87;;;20.20;96.50;;;;;;5064535;28;20213;-50
2022/07/17 11:26:03;;;;;;;4.23;1.33;;;20.40;96.30;;;;;;5060718;28;20234;-54
2022/07/17 11:28:36;;;;;;;4.63;1.73;;;20.40;96.10;;;;;;5064309;28;20204;-54
2022/07/17 11:31:05;;;;;;;3.30;1.27;;;20.50;96.10;;;;;;5051303;28;20218;-52
2022/07/17 11:33:33;;;;;;;2.50;1.13;;;20.60;95.70;;;;;;5064565;28;20201;-53
2022/07/17 11:36:00;;;;;;;1.23;0.90;;;20.50;95.50;;;;;;5045117;28;20250;-55
2022/07/17 11:38:30;;;;;;;2.93;1.33;;;20.50;95.60;;;;;;5064496;28;20195;-49
2022/07/17 11:40:57;;;;;;;1.33;0.97;;;20.60;95.90;;;;;;5061483;28;20220;-54
2022/07/17 11:43:25;;;;;;;1.90;0.80;;;20.80;95.60;;;;;;5064212;28;20213;-52
2022/07/17 11:45:51;;;;;;;2.20;0.90;;;20.80;95.40;;;;;;5058989;28;20246;-52
2022/07/17 11:48:18;;;;;;;2.53;0.80;;;;;;;;;;5060134;28;20202;-49
2022/07/17 11:50:57;;;;;;;4.50;1.00;;;21.00;94.30;;;;;;5063320;28;20223;-52
2022/07/17 11:53:34;;;;;;;2.73;1.07;;;21.00;94.10;;;;;;5048132;28;20206;-50
2022/07/17 11:56:02;;;;;;;1.30;0.80;;;21.00;94.20;;;;;;5053805;28;20221;-48
2022/07/17 11:58:29;;;;;;;3.80;0.80;;;21.10;94.10;;;;;;5064374;28;20575;-53
2022/07/17 12:01:05;;;;;;;2.90;0.80;;;21.30;94.20;;;;;;5055730;28;20195;-53
2022/07/17 12:03:32;;;;;;;1.13;0.60;;;21.40;93.20;;;;;;5063253;28;20273;-51
2022/07/17 12:06:00;;;;;;;3.93;1.20;;;21.20;93.20;;;;;;5059879;28;20218;-51
2022/07/17 12:08:27;;;;;;;2.97;1.00;;;21.00;93.50;;;;;;5048090;28;20233;-49
2022/07/17 12:11:02;;;;;;;1.40;0.83;;;21.00;93.50;;;;;;5060858;28;20721;-51
2022/07/17 12:13:40;;;;;;;3.13;0.97;;;21.00;92.90;;;;;;5063625;28;20200;-48
2022/07/17 12:16:20;;;;;;;1.45;0.82;;;21.10;93.90;;;;;;5060184;28;20222;-53
2022/07/17 12:18:56;;;;;;;2.00;0.60;;;21.40;93.50;;;;;;5055345;28;20229;-52
2022/07/17 12:21:24;;;;;;;1.03;0.60;;;21.50;92.80;;;;;;5063828;28;20194;-48
2022/07/17 12:23:58;;;;;;;0.93;0.80;;;21.40;93.20;;;;;;5044870;28;20266;-51
2022/07/17 12:26:25;;;;;;;2.55;0.80;;;21.40;92.70;;;;;;5063633;28;20227;-51
2022/07/17 12:28:52;;;;;;;3.85;1.30;;;21.40;92.90;;;;;;5061520;28;20205;-53
2022/07/17 12:31:20;;;;;;;0.90;0.70;;;21.50;92.80;;;;;;5062435;28;20215;-49
2022/07/17 12:33:47;;;;;;;1.55;0.80;;;21.50;92.90;;;;;;5054898;28;20210;-53
2022/07/17 12:36:14;;;;;;;2.20;1.20;;;21.50;92.50;;;;;;5061492;28;20218;-50
2022/07/17 12:38:42;;;;;;;1.63;0.80;;;21.60;92.10;;;;;;5061390;28;20202;-52
2022/07/17 12:41:09;;;;;;;2.90;0.80;;;21.60;92.70;;;;;;5048969;28;20195;-50
2022/07/17 12:43:37;;;;;;;2.75;0.88;;;21.50;92.60;;;;;;5063247;28;20315;-50
2022/07/17 12:46:03;;;;;;;3.25;0.90;;;21.60;92.30;;;;;;5059704;28;20249;-48
2022/07/17 12:48:31;;;;;;;2.45;0.90;;;21.70;92.00;;;;;;5056551;28;20217;-50
2022/07/17 12:50:58;;;;;;;1.77;0.85;;;21.90;92.20;;;;;;5058377;28;20590;-51
2022/07/17 12:53:25;;;;;;;3.13;1.10;;;22.20;92.40;;;;;;5062913;28;20209;-50